createdAt,value
2017-02-05T00:00:14.968Z,2.4
2017-02-05T00:00:33.611Z,2.4
2017-02-05T00:00:52.246Z,2.4
2017-02-05T00:01:10.878Z,2.3
2017-02-05T00:01:29.513Z,2.3
2017-02-05T00:01:48.171Z,2.4
2017-02-05T00:02:06.808Z,2.4
2017-02-05T00:02:25.448Z,2.4
2017-02-05T00:02:44.080Z,2.4
2017-02-05T00:03:02.722Z,2.4
2017-02-05T00:03:21.357Z,2.4
2017-02-05T00:03:39.993Z,2.4
2017-02-05T00:03:58.629Z,2.4
2017-02-05T00:04:17.285Z,2.4
2017-02-05T00:04:35.921Z,2.4
2017-02-05T00:04:54.554Z,2.4
2017-02-05T00:05:13.243Z,2.4
2017-02-05T00:05:31.885Z,2.4
2017-02-05T00:05:50.513Z,2.4
2017-02-05T00:06:09.143Z,2.4
2017-02-05T00:06:27.778Z,2.4
2017-02-05T00:06:46.415Z,2.4
2017-02-05T00:07:05.050Z,2.4
2017-02-05T00:07:23.683Z,2.4
2017-02-05T00:07:42.314Z,2.4
2017-02-05T00:08:00.951Z,2.4
2017-02-05T00:08:19.586Z,2.4
2017-02-05T00:08:38.244Z,2.5
2017-02-05T00:08:56.881Z,2.5
2017-02-05T00:09:15.512Z,2.5
2017-02-05T00:09:34.161Z,2.5
2017-02-05T00:09:52.791Z,2.5
2017-02-05T00:10:11.430Z,2.5
2017-02-05T00:10:30.069Z,2.5
2017-02-05T00:10:48.700Z,2.5
2017-02-05T00:11:07.333Z,2.5
2017-02-05T00:11:25.974Z,2.5
2017-02-05T00:11:44.609Z,2.5
2017-02-05T00:12:03.274Z,2.5
2017-02-05T00:12:21.902Z,2.5
2017-02-05T00:12:40.532Z,2.5
2017-02-05T00:12:59.164Z,2.5
2017-02-05T00:13:17.800Z,2.5
2017-02-05T00:13:36.431Z,2.5
2017-02-05T00:13:55.065Z,2.5
2017-02-05T00:14:13.698Z,2.5
2017-02-05T00:14:32.339Z,2.5
2017-02-05T00:14:50.993Z,2.5
2017-02-05T00:15:09.629Z,2.5
2017-02-05T00:15:28.294Z,2.5
2017-02-05T00:15:46.922Z,2.5
2017-02-05T00:16:05.554Z,2.5
2017-02-05T00:16:24.186Z,2.5
2017-02-05T00:16:42.820Z,2.5
2017-02-05T00:17:01.461Z,2.5
2017-02-05T00:17:20.089Z,2.6
2017-02-05T00:17:38.725Z,2.6
2017-02-05T00:17:57.364Z,2.5
2017-02-05T00:18:16.005Z,2.5
2017-02-05T00:18:34.641Z,2.6
2017-02-05T00:18:53.300Z,2.6
2017-02-05T00:19:11.940Z,2.6
2017-02-05T00:19:30.579Z,2.6
2017-02-05T00:19:49.221Z,2.6
2017-02-05T00:20:07.863Z,2.5
2017-02-05T00:20:26.499Z,2.6
2017-02-05T00:20:45.134Z,2.5
2017-02-05T00:21:03.768Z,2.5
2017-02-05T00:21:22.403Z,2.5
2017-02-05T00:21:41.035Z,2.5
2017-02-05T00:21:59.671Z,2.5
2017-02-05T00:22:18.342Z,2.5
2017-02-05T00:22:36.979Z,2.5
2017-02-05T00:22:55.618Z,2.5
2017-02-05T00:23:14.256Z,2.5
2017-02-05T00:23:32.884Z,2.5
2017-02-05T00:23:51.525Z,2.6
2017-02-05T00:24:10.159Z,2.6
2017-02-05T00:24:28.795Z,2.6
2017-02-05T00:24:47.432Z,2.6
2017-02-05T00:25:06.065Z,2.6
2017-02-05T00:25:24.729Z,2.7
2017-02-05T00:25:43.376Z,2.7
2017-02-05T00:26:02.014Z,2.7
2017-02-05T00:26:20.651Z,2.7
2017-02-05T00:26:39.291Z,2.7
2017-02-05T00:26:57.925Z,2.7
2017-02-05T00:27:16.602Z,2.7
2017-02-05T00:27:35.237Z,2.7
2017-02-05T00:27:53.871Z,2.7
2017-02-05T00:28:12.505Z,2.7
2017-02-05T00:28:31.139Z,2.7
2017-02-05T00:28:49.777Z,2.7
2017-02-05T00:29:08.412Z,2.7
2017-02-05T00:29:27.045Z,2.7
2017-02-05T00:29:45.689Z,2.7
2017-02-05T00:30:04.325Z,2.7
2017-02-05T00:30:22.973Z,2.7
2017-02-05T00:30:41.643Z,2.7
2017-02-05T00:31:00.275Z,2.6
2017-02-05T00:31:18.909Z,2.6
2017-02-05T00:31:37.547Z,2.6
2017-02-05T00:31:56.182Z,2.6
2017-02-05T00:32:14.817Z,2.6
2017-02-05T00:32:33.447Z,2.6
2017-02-05T00:32:52.088Z,2.6
2017-02-05T00:33:10.725Z,2.6
2017-02-05T00:33:29.383Z,2.6
2017-02-05T00:33:48.033Z,2.5
2017-02-05T00:34:06.667Z,2.5
2017-02-05T00:34:25.301Z,2.5
2017-02-05T00:34:43.940Z,2.5
2017-02-05T00:35:02.582Z,2.5
2017-02-05T00:35:21.221Z,2.5
2017-02-05T00:35:39.855Z,2.5
2017-02-05T00:35:58.500Z,2.5
2017-02-05T00:36:17.132Z,2.5
2017-02-05T00:36:35.767Z,2.5
2017-02-05T00:36:54.408Z,2.5
2017-02-05T00:37:13.060Z,2.5
2017-02-05T00:37:31.688Z,2.5
2017-02-05T00:37:50.320Z,2.6
2017-02-05T00:38:08.955Z,2.6
2017-02-05T00:38:27.589Z,2.6
2017-02-05T00:38:46.224Z,2.6
2017-02-05T00:39:04.852Z,2.6
2017-02-05T00:39:23.487Z,2.6
2017-02-05T00:39:42.123Z,2.6
2017-02-05T00:40:00.756Z,2.6
2017-02-05T00:40:19.390Z,2.6
2017-02-05T00:40:38.041Z,2.6
2017-02-05T00:40:56.669Z,2.6
2017-02-05T00:41:15.325Z,2.6
2017-02-05T00:41:33.958Z,2.6
2017-02-05T00:41:52.591Z,2.6
2017-02-05T00:42:11.221Z,2.6
2017-02-05T00:42:29.852Z,2.6
2017-02-05T00:42:48.488Z,2.6
2017-02-05T00:43:07.122Z,2.6
2017-02-05T00:43:25.756Z,2.6
2017-02-05T00:43:44.394Z,2.6
2017-02-05T00:44:03.046Z,2.6
2017-02-05T00:44:21.689Z,2.6
2017-02-05T00:44:40.329Z,2.6
2017-02-05T00:44:58.963Z,2.6
2017-02-05T00:45:17.597Z,2.6
2017-02-05T00:45:36.230Z,2.6
2017-02-05T00:45:54.856Z,2.6
2017-02-05T00:46:13.493Z,2.6
2017-02-05T00:46:32.142Z,2.6
2017-02-05T00:46:50.775Z,2.6
2017-02-05T00:47:09.409Z,2.6
2017-02-05T00:47:28.071Z,2.6
2017-02-05T00:47:46.705Z,2.6
2017-02-05T00:48:05.337Z,2.6
2017-02-05T00:48:23.970Z,2.6
2017-02-05T00:48:42.607Z,2.6
2017-02-05T00:49:01.234Z,2.6
2017-02-05T00:49:19.868Z,2.6
2017-02-05T00:49:38.504Z,2.6
2017-02-05T00:49:57.142Z,2.6
2017-02-05T00:50:15.778Z,2.6
2017-02-05T00:50:34.410Z,2.6
2017-02-05T00:50:53.071Z,2.6
2017-02-05T00:51:11.706Z,2.6
2017-02-05T00:51:30.342Z,2.6
2017-02-05T00:51:48.997Z,2.6
2017-02-05T00:52:07.625Z,2.6
2017-02-05T00:52:26.253Z,2.6
2017-02-05T00:52:44.891Z,2.6
2017-02-05T00:53:03.532Z,2.6
2017-02-05T00:53:22.164Z,2.6
2017-02-05T00:53:40.797Z,2.6
2017-02-05T00:53:59.429Z,2.6
2017-02-05T00:54:18.095Z,2.6
2017-02-05T00:54:36.734Z,2.6
2017-02-05T00:54:55.370Z,2.6
2017-02-05T00:55:14.012Z,2.6
2017-02-05T00:55:32.644Z,2.6
2017-02-05T00:55:51.273Z,2.6
2017-02-05T00:56:09.914Z,2.6
2017-02-05T00:56:28.548Z,2.6
2017-02-05T00:56:47.189Z,2.6
2017-02-05T00:57:05.830Z,2.6
2017-02-05T00:57:24.463Z,2.6
2017-02-05T00:57:43.132Z,2.6
2017-02-05T00:58:01.763Z,2.6
2017-02-05T00:58:20.394Z,2.6
2017-02-05T00:58:39.024Z,2.6
2017-02-05T00:58:57.661Z,2.6
2017-02-05T00:59:16.294Z,2.6
2017-02-05T00:59:34.928Z,2.6
2017-02-05T00:59:53.559Z,2.6
2017-02-05T01:00:12.196Z,2.6
2017-02-05T01:00:30.836Z,2.7
2017-02-05T01:00:49.469Z,2.7
2017-02-05T01:01:08.140Z,2.7
2017-02-05T01:01:26.775Z,2.7
2017-02-05T01:01:45.405Z,2.7
2017-02-05T01:02:04.045Z,2.7
2017-02-05T01:02:22.681Z,2.7
2017-02-05T01:02:41.320Z,2.7
2017-02-05T01:02:59.950Z,2.7
2017-02-05T01:03:18.580Z,2.7
2017-02-05T01:03:37.220Z,2.7
2017-02-05T01:03:55.875Z,2.7
2017-02-05T01:04:14.507Z,2.7
2017-02-05T01:04:33.173Z,2.7
2017-02-05T01:04:51.803Z,2.6
2017-02-05T01:05:10.439Z,2.6
2017-02-05T01:05:29.077Z,2.6
2017-02-05T01:05:47.709Z,2.7
2017-02-05T01:06:06.338Z,2.7
2017-02-05T01:06:24.976Z,2.7
2017-02-05T01:06:43.613Z,2.7
2017-02-05T01:07:02.252Z,2.7
2017-02-05T01:07:20.890Z,2.7
2017-02-05T01:07:39.537Z,2.7
2017-02-05T01:07:58.183Z,2.7
2017-02-05T01:08:16.815Z,2.7
2017-02-05T01:08:35.450Z,2.7
2017-02-05T01:08:54.084Z,2.7
2017-02-05T01:09:12.715Z,2.7
2017-02-05T01:09:31.384Z,2.7
2017-02-05T01:09:50.018Z,2.7
2017-02-05T01:10:08.654Z,2.7
2017-02-05T01:10:27.294Z,2.7
2017-02-05T01:10:45.928Z,2.7
2017-02-05T01:11:04.558Z,2.7
2017-02-05T01:11:23.201Z,2.7
2017-02-05T01:11:41.833Z,2.7
2017-02-05T01:12:00.467Z,2.7
2017-02-05T01:12:19.102Z,2.7
2017-02-05T01:12:37.731Z,2.7
2017-02-05T01:12:56.422Z,2.7
2017-02-05T01:13:15.055Z,2.7
2017-02-05T01:13:33.687Z,2.7
2017-02-05T01:13:52.315Z,2.7
2017-02-05T01:14:10.955Z,2.7
2017-02-05T01:14:29.591Z,2.7
2017-02-05T01:14:48.230Z,2.7
2017-02-05T01:15:06.868Z,2.7
2017-02-05T01:15:25.498Z,2.7
2017-02-05T01:15:44.140Z,2.8
2017-02-05T01:16:02.786Z,2.8
2017-02-05T01:16:21.453Z,2.8
2017-02-05T01:16:40.089Z,2.8
2017-02-05T01:16:58.720Z,2.8
2017-02-05T01:17:17.357Z,2.8
2017-02-05T01:17:35.996Z,2.8
2017-02-05T01:17:54.630Z,2.8
2017-02-05T01:18:13.280Z,2.8
2017-02-05T01:18:31.913Z,2.8
2017-02-05T01:18:50.546Z,2.8
2017-02-05T01:19:09.188Z,2.8
2017-02-05T01:19:27.845Z,2.8
2017-02-05T01:19:46.481Z,2.8
2017-02-05T01:20:05.117Z,2.8
2017-02-05T01:20:23.756Z,2.8
2017-02-05T01:20:42.392Z,2.8
2017-02-05T01:21:01.032Z,2.8
2017-02-05T01:21:19.665Z,2.8
2017-02-05T01:21:38.301Z,2.8
2017-02-05T01:21:56.937Z,2.7
2017-02-05T01:22:15.572Z,2.7
2017-02-05T01:22:34.206Z,2.7
2017-02-05T01:22:52.859Z,2.7
2017-02-05T01:23:11.493Z,2.7
2017-02-05T01:23:30.147Z,2.7
2017-02-05T01:23:48.782Z,2.7
2017-02-05T01:24:07.413Z,2.7
2017-02-05T01:24:26.048Z,2.7
2017-02-05T01:24:44.691Z,2.7
2017-02-05T01:25:03.325Z,2.7
2017-02-05T01:25:21.960Z,2.7
2017-02-05T01:25:40.596Z,2.7
2017-02-05T01:25:59.232Z,2.7
2017-02-05T01:26:17.904Z,2.7
2017-02-05T01:26:36.543Z,2.7
2017-02-05T01:26:55.177Z,2.8
2017-02-05T01:27:13.807Z,2.8
2017-02-05T01:27:32.435Z,2.8
2017-02-05T01:27:51.074Z,2.8
2017-02-05T01:28:09.706Z,2.8
2017-02-05T01:28:28.339Z,2.8
2017-02-05T01:28:46.979Z,2.8
2017-02-05T01:29:05.607Z,2.8
2017-02-05T01:29:24.243Z,2.8
2017-02-05T01:29:42.909Z,2.8
2017-02-05T01:30:01.548Z,2.8
2017-02-05T01:30:20.182Z,2.8
2017-02-05T01:30:38.816Z,2.8
2017-02-05T01:30:57.457Z,2.8
2017-02-05T01:31:16.097Z,2.8
2017-02-05T01:31:34.730Z,2.8
2017-02-05T01:31:53.359Z,2.8
2017-02-05T01:32:11.993Z,2.8
2017-02-05T01:32:30.631Z,2.8
2017-02-05T01:32:49.268Z,2.8
2017-02-05T01:33:07.925Z,2.8
2017-02-05T01:33:26.555Z,2.8
2017-02-05T01:33:45.181Z,2.8
2017-02-05T01:34:03.831Z,2.8
2017-02-05T01:34:22.475Z,2.8
2017-02-05T01:34:41.112Z,2.9
2017-02-05T01:34:59.743Z,2.8
2017-02-05T01:35:18.382Z,2.8
2017-02-05T01:35:37.022Z,2.9
2017-02-05T01:35:55.657Z,2.9
2017-02-05T01:36:14.296Z,2.9
2017-02-05T01:36:32.954Z,2.9
2017-02-05T01:36:51.585Z,2.9
2017-02-05T01:37:10.222Z,2.9
2017-02-05T01:37:28.860Z,2.9
2017-02-05T01:37:47.492Z,2.9
2017-02-05T01:38:06.121Z,2.9
2017-02-05T01:38:24.755Z,2.9
2017-02-05T01:38:43.390Z,2.9
2017-02-05T01:39:02.024Z,2.9
2017-02-05T01:39:20.663Z,2.9
2017-02-05T01:39:39.293Z,2.9
2017-02-05T01:39:57.951Z,2.9
2017-02-05T01:40:16.584Z,2.9
2017-02-05T01:40:35.215Z,2.9
2017-02-05T01:40:53.848Z,2.9
2017-02-05T01:41:12.476Z,2.9
2017-02-05T01:41:31.119Z,2.9
2017-02-05T01:41:49.753Z,2.9
2017-02-05T01:42:08.384Z,2.9
2017-02-05T01:42:27.018Z,2.9
2017-02-05T01:42:45.645Z,2.9
2017-02-05T01:43:04.281Z,2.9
2017-02-05T01:43:22.944Z,2.9
2017-02-05T01:43:41.581Z,2.9
2017-02-05T01:44:00.219Z,2.9
2017-02-05T01:44:18.850Z,2.9
2017-02-05T01:44:37.492Z,2.9
2017-02-05T01:44:56.128Z,2.9
2017-02-05T01:45:14.762Z,2.9
2017-02-05T01:45:33.399Z,2.9
2017-02-05T01:45:52.033Z,2.9
2017-02-05T01:46:10.667Z,2.9
2017-02-05T01:46:29.299Z,2.9
2017-02-05T01:46:47.973Z,2.9
2017-02-05T01:47:06.606Z,2.9
2017-02-05T01:47:25.234Z,2.9
2017-02-05T01:47:43.862Z,2.9
2017-02-05T01:48:02.499Z,2.9
2017-02-05T01:48:21.134Z,2.9
2017-02-05T01:48:39.765Z,2.9
2017-02-05T01:48:58.411Z,2.9
2017-02-05T01:49:17.040Z,2.9
2017-02-05T01:49:35.699Z,2.8
2017-02-05T01:49:54.344Z,2.8
2017-02-05T01:50:12.998Z,2.8
2017-02-05T01:50:31.628Z,2.8
2017-02-05T01:50:50.256Z,2.8
2017-02-05T01:51:08.894Z,2.8
2017-02-05T01:51:27.532Z,2.8
2017-02-05T01:51:46.202Z,2.8
2017-02-05T01:52:04.834Z,2.8
2017-02-05T01:52:23.467Z,2.8
2017-02-05T01:52:42.096Z,2.8
2017-02-05T01:53:00.733Z,2.8
2017-02-05T01:53:19.370Z,2.8
2017-02-05T01:53:38.019Z,2.8
2017-02-05T01:53:56.653Z,2.8
2017-02-05T01:54:15.290Z,2.8
2017-02-05T01:54:33.923Z,2.8
2017-02-05T01:54:52.554Z,2.8
2017-02-05T01:55:11.241Z,2.8
2017-02-05T01:55:29.869Z,2.8
2017-02-05T01:55:48.511Z,2.8
2017-02-05T01:56:07.144Z,2.8
2017-02-05T01:56:25.782Z,2.8
2017-02-05T01:56:44.411Z,2.8
2017-02-05T01:57:03.048Z,2.8
2017-02-05T01:57:21.680Z,2.8
2017-02-05T01:57:40.317Z,2.8
2017-02-05T01:57:58.957Z,2.8
2017-02-05T01:58:17.593Z,2.7
2017-02-05T01:58:36.257Z,2.7
2017-02-05T01:58:54.891Z,2.7
2017-02-05T01:59:13.527Z,2.7
2017-02-05T01:59:32.169Z,2.7
2017-02-05T01:59:50.800Z,2.7
2017-02-05T02:00:09.452Z,2.7
2017-02-05T02:00:28.101Z,2.7
2017-02-05T02:00:46.733Z,2.7
2017-02-05T02:01:05.367Z,2.7
2017-02-05T02:01:23.994Z,2.7
2017-02-05T02:01:42.642Z,2.6
2017-02-05T02:02:01.286Z,2.6
2017-02-05T02:02:19.918Z,2.6
2017-02-05T02:02:38.553Z,2.6
2017-02-05T02:02:57.179Z,2.6
2017-02-05T02:03:15.806Z,2.6
2017-02-05T02:03:34.437Z,2.6
2017-02-05T02:03:53.072Z,2.6
2017-02-05T02:04:11.707Z,2.6
2017-02-05T02:04:30.339Z,2.6
2017-02-05T02:04:48.999Z,2.6
2017-02-05T02:05:07.653Z,2.6
2017-02-05T02:05:26.291Z,2.6
2017-02-05T02:05:44.946Z,2.5
2017-02-05T02:06:03.576Z,2.5
2017-02-05T02:06:22.211Z,2.5
2017-02-05T02:06:40.847Z,2.5
2017-02-05T02:06:59.483Z,2.5
2017-02-05T02:07:18.116Z,2.5
2017-02-05T02:07:36.750Z,2.5
2017-02-05T02:07:55.390Z,2.5
2017-02-05T02:08:14.026Z,2.5
2017-02-05T02:08:32.681Z,2.5
2017-02-05T02:08:51.321Z,2.5
2017-02-05T02:09:09.949Z,2.5
2017-02-05T02:09:28.593Z,2.5
2017-02-05T02:09:47.228Z,2.4
2017-02-05T02:10:05.866Z,2.4
2017-02-05T02:10:24.503Z,2.4
2017-02-05T02:10:43.139Z,2.4
2017-02-05T02:11:01.776Z,2.4
2017-02-05T02:11:20.415Z,2.4
2017-02-05T02:11:39.051Z,2.4
2017-02-05T02:11:57.711Z,2.4
2017-02-05T02:12:16.338Z,2.4
2017-02-05T02:12:34.969Z,2.4
2017-02-05T02:12:53.604Z,2.4
2017-02-05T02:13:12.235Z,2.4
2017-02-05T02:13:30.870Z,2.4
2017-02-05T02:13:49.497Z,2.4
2017-02-05T02:14:08.126Z,2.4
2017-02-05T02:14:26.763Z,2.4
2017-02-05T02:14:45.394Z,2.4
2017-02-05T02:15:04.025Z,2.3
2017-02-05T02:15:22.690Z,2.4
2017-02-05T02:15:41.320Z,2.3
2017-02-05T02:15:59.955Z,2.3
2017-02-05T02:16:18.610Z,2.4
2017-02-05T02:16:37.249Z,2.4
2017-02-05T02:16:55.883Z,2.4
2017-02-05T02:17:14.522Z,2.4
2017-02-05T02:17:33.159Z,2.4
2017-02-05T02:17:51.798Z,2.4
2017-02-05T02:18:10.435Z,2.4
2017-02-05T02:18:29.067Z,2.4
2017-02-05T02:18:47.743Z,2.4
2017-02-05T02:19:06.387Z,2.4
2017-02-05T02:19:25.021Z,2.4
2017-02-05T02:19:43.658Z,2.4
2017-02-05T02:20:02.300Z,2.4
2017-02-05T02:20:20.942Z,2.4
2017-02-05T02:20:39.575Z,2.4
2017-02-05T02:20:58.210Z,2.4
2017-02-05T02:21:16.844Z,2.4
2017-02-05T02:21:35.478Z,2.5
2017-02-05T02:21:54.117Z,2.5
2017-02-05T02:22:12.778Z,2.5
2017-02-05T02:22:31.410Z,2.5
2017-02-05T02:22:50.046Z,2.6
2017-02-05T02:23:08.692Z,2.6
2017-02-05T02:23:27.327Z,2.6
2017-02-05T02:23:45.964Z,2.6
2017-02-05T02:24:04.599Z,2.6
2017-02-05T02:24:23.231Z,2.6
2017-02-05T02:24:41.866Z,2.7
2017-02-05T02:25:00.506Z,2.7
2017-02-05T02:25:19.142Z,2.7
2017-02-05T02:25:37.806Z,2.7
2017-02-05T02:25:56.436Z,2.7
2017-02-05T02:26:15.065Z,2.7
2017-02-05T02:26:33.695Z,2.7
2017-02-05T02:26:52.351Z,2.7
2017-02-05T02:27:10.991Z,2.7
2017-02-05T02:27:29.621Z,2.7
2017-02-05T02:27:48.257Z,2.7
2017-02-05T02:28:06.893Z,2.7
2017-02-05T02:28:25.532Z,2.7
2017-02-05T02:28:44.172Z,2.7
2017-02-05T02:29:02.830Z,2.7
2017-02-05T02:29:21.457Z,2.7
2017-02-05T02:29:40.089Z,2.7
2017-02-05T02:29:58.723Z,2.7
2017-02-05T02:30:17.352Z,2.7
2017-02-05T02:30:35.981Z,2.7
2017-02-05T02:30:54.622Z,2.7
2017-02-05T02:31:13.256Z,2.7
2017-02-05T02:31:31.895Z,2.7
2017-02-05T02:31:50.534Z,2.7
2017-02-05T02:32:09.181Z,2.7
2017-02-05T02:32:27.829Z,2.7
2017-02-05T02:32:46.470Z,2.7
2017-02-05T02:33:05.107Z,2.7
2017-02-05T02:33:23.747Z,2.7
2017-02-05T02:33:42.377Z,2.7
2017-02-05T02:34:01.068Z,2.7
2017-02-05T02:34:19.703Z,2.7
2017-02-05T02:34:38.345Z,2.7
2017-02-05T02:34:56.979Z,2.7
2017-02-05T02:35:15.616Z,2.7
2017-02-05T02:35:34.255Z,2.7
2017-02-05T02:35:52.886Z,2.7
2017-02-05T02:36:11.552Z,2.7
2017-02-05T02:36:30.191Z,2.7
2017-02-05T02:36:48.821Z,2.7
2017-02-05T02:37:07.481Z,2.7
2017-02-05T02:37:26.139Z,2.7
2017-02-05T02:37:44.770Z,2.7
2017-02-05T02:38:03.396Z,2.7
2017-02-05T02:38:22.027Z,2.6
2017-02-05T02:38:40.662Z,2.6
2017-02-05T02:38:59.294Z,2.6
2017-02-05T02:39:17.932Z,2.6
2017-02-05T02:39:36.567Z,2.6
2017-02-05T02:39:55.194Z,2.6
2017-02-05T02:40:13.830Z,2.6
2017-02-05T02:40:32.482Z,2.6
2017-02-05T02:40:51.115Z,2.6
2017-02-05T02:41:09.744Z,2.6
2017-02-05T02:41:28.375Z,2.6
2017-02-05T02:41:47.005Z,2.6
2017-02-05T02:42:05.635Z,2.6
2017-02-05T02:42:24.271Z,2.6
2017-02-05T02:42:42.918Z,2.6
2017-02-05T02:43:01.551Z,2.6
2017-02-05T02:43:20.182Z,2.6
2017-02-05T02:43:38.818Z,2.6
2017-02-05T02:43:57.467Z,2.6
2017-02-05T02:44:16.099Z,2.6
2017-02-05T02:44:34.729Z,2.6
2017-02-05T02:44:53.370Z,2.6
2017-02-05T02:45:12.006Z,2.6
2017-02-05T02:45:30.639Z,2.6
2017-02-05T02:45:49.274Z,2.6
2017-02-05T02:46:07.902Z,2.6
2017-02-05T02:46:26.541Z,2.6
2017-02-05T02:46:45.175Z,2.6
2017-02-05T02:47:03.809Z,2.6
2017-02-05T02:47:22.456Z,2.6
2017-02-05T02:47:41.091Z,2.6
2017-02-05T02:47:59.729Z,2.7
2017-02-05T02:48:18.364Z,2.7
2017-02-05T02:48:36.999Z,2.7
2017-02-05T02:48:55.634Z,2.7
2017-02-05T02:49:14.276Z,2.7
2017-02-05T02:49:32.911Z,2.7
2017-02-05T02:49:51.541Z,2.7
2017-02-05T02:50:10.186Z,2.7
2017-02-05T02:50:28.835Z,2.7
2017-02-05T02:50:47.486Z,2.7
2017-02-05T02:51:06.120Z,2.7
2017-02-05T02:51:24.755Z,2.7
2017-02-05T02:51:43.389Z,2.7
2017-02-05T02:52:02.017Z,2.7
2017-02-05T02:52:20.648Z,2.7
2017-02-05T02:52:39.288Z,2.7
2017-02-05T02:52:57.925Z,2.7
2017-02-05T02:53:16.576Z,2.7
2017-02-05T02:53:35.207Z,2.7
2017-02-05T02:53:53.832Z,2.7
2017-02-05T02:54:12.489Z,2.7
2017-02-05T02:54:31.126Z,2.7
2017-02-05T02:54:49.760Z,2.7
2017-02-05T02:55:08.400Z,2.7
2017-02-05T02:55:27.031Z,2.7
2017-02-05T02:55:45.667Z,2.7
2017-02-05T02:56:04.300Z,2.7
2017-02-05T02:56:22.936Z,2.7
2017-02-05T02:56:41.572Z,2.7
2017-02-05T02:57:00.216Z,2.7
2017-02-05T02:57:18.847Z,2.7
2017-02-05T02:57:37.515Z,2.7
2017-02-05T02:57:56.146Z,2.7
2017-02-05T02:58:14.779Z,2.7
2017-02-05T02:58:33.414Z,2.7
2017-02-05T02:58:52.044Z,2.7
2017-02-05T02:59:10.687Z,2.7
2017-02-05T02:59:29.320Z,2.8
2017-02-05T02:59:47.954Z,2.8
2017-02-05T03:00:06.590Z,2.8
2017-02-05T03:00:25.219Z,2.8
2017-02-05T03:00:43.849Z,2.8
2017-02-05T03:01:02.516Z,2.8
2017-02-05T03:01:21.157Z,2.8
2017-02-05T03:01:39.798Z,2.8
2017-02-05T03:01:58.430Z,2.8
2017-02-05T03:02:17.066Z,2.8
2017-02-05T03:02:35.703Z,2.8
2017-02-05T03:02:54.334Z,2.8
2017-02-05T03:03:12.968Z,2.9
2017-02-05T03:03:31.599Z,2.9
2017-02-05T03:03:50.269Z,2.9
2017-02-05T03:04:08.909Z,2.9
2017-02-05T03:04:27.570Z,2.9
2017-02-05T03:04:46.200Z,2.9
2017-02-05T03:05:04.831Z,2.9
2017-02-05T03:05:23.466Z,2.9
2017-02-05T03:05:42.111Z,2.9
2017-02-05T03:06:00.745Z,3
2017-02-05T03:06:19.383Z,3
2017-02-05T03:06:38.014Z,3
2017-02-05T03:06:56.645Z,3
2017-02-05T03:07:15.276Z,3
2017-02-05T03:07:33.911Z,3
2017-02-05T03:07:52.567Z,3
2017-02-05T03:08:11.200Z,3
2017-02-05T03:08:29.834Z,3
2017-02-05T03:08:48.470Z,3
2017-02-05T03:09:07.112Z,3
2017-02-05T03:09:25.742Z,3
2017-02-05T03:09:44.370Z,3
2017-02-05T03:10:03.007Z,3
2017-02-05T03:10:21.641Z,3
2017-02-05T03:10:40.272Z,3
2017-02-05T03:10:58.900Z,3
2017-02-05T03:11:17.567Z,3
2017-02-05T03:11:36.204Z,3
2017-02-05T03:11:54.847Z,3
2017-02-05T03:12:13.481Z,3
2017-02-05T03:12:32.111Z,3
2017-02-05T03:12:50.748Z,3
2017-02-05T03:13:09.380Z,3
2017-02-05T03:13:28.015Z,3
2017-02-05T03:13:46.658Z,3
2017-02-05T03:14:05.292Z,3
2017-02-05T03:14:23.952Z,3
2017-02-05T03:14:42.614Z,3
2017-02-05T03:15:01.251Z,3
2017-02-05T03:15:19.882Z,3
2017-02-05T03:15:38.515Z,3
2017-02-05T03:15:57.153Z,3
2017-02-05T03:16:15.789Z,3
2017-02-05T03:16:34.422Z,3
2017-02-05T03:16:53.060Z,3.1
2017-02-05T03:17:11.691Z,3.1
2017-02-05T03:17:30.327Z,3.1
2017-02-05T03:17:48.964Z,3.1
2017-02-05T03:18:07.620Z,3.1
2017-02-05T03:18:26.259Z,3.1
2017-02-05T03:18:44.891Z,3.1
2017-02-05T03:19:03.521Z,3.1
2017-02-05T03:19:22.151Z,3.1
2017-02-05T03:19:40.822Z,3.1
2017-02-05T03:19:59.461Z,3.1
2017-02-05T03:20:18.100Z,3.1
2017-02-05T03:20:36.727Z,3.1
2017-02-05T03:20:55.375Z,3.1
2017-02-05T03:21:14.006Z,3.1
2017-02-05T03:21:32.649Z,3.1
2017-02-05T03:21:51.287Z,3.1
2017-02-05T03:22:09.915Z,3.1
2017-02-05T03:22:28.550Z,3.1
2017-02-05T03:22:47.186Z,3.1
2017-02-05T03:23:05.857Z,3.1
2017-02-05T03:23:24.492Z,3.1
2017-02-05T03:23:43.119Z,3.1
2017-02-05T03:24:01.755Z,3.1
2017-02-05T03:24:20.387Z,3.1
2017-02-05T03:24:39.025Z,3.1
2017-02-05T03:24:57.684Z,3.1
2017-02-05T03:25:16.314Z,3.1
2017-02-05T03:25:34.953Z,3.1
2017-02-05T03:25:53.589Z,3.1
2017-02-05T03:26:12.233Z,3.1
2017-02-05T03:26:30.895Z,3.1
2017-02-05T03:26:49.553Z,3.1
2017-02-05T03:27:08.187Z,3.1
2017-02-05T03:27:26.820Z,3.1
2017-02-05T03:27:45.454Z,3.1
2017-02-05T03:28:04.087Z,3.1
2017-02-05T03:28:22.715Z,3.1
2017-02-05T03:28:41.348Z,3
2017-02-05T03:28:59.985Z,3.1
2017-02-05T03:29:18.621Z,3.1
2017-02-05T03:29:37.265Z,3.1
2017-02-05T03:29:55.909Z,3.1
2017-02-05T03:30:14.557Z,3.1
2017-02-05T03:30:33.191Z,3.1
2017-02-05T03:30:51.831Z,3.1
2017-02-05T03:31:10.462Z,3.1
2017-02-05T03:31:29.097Z,3.1
2017-02-05T03:31:47.731Z,3.1
2017-02-05T03:32:06.365Z,3.1
2017-02-05T03:32:25.008Z,3.1
2017-02-05T03:32:43.640Z,3.1
2017-02-05T03:33:02.290Z,3.1
2017-02-05T03:33:20.925Z,3.1
2017-02-05T03:33:39.559Z,3.1
2017-02-05T03:33:58.197Z,3.1
2017-02-05T03:34:16.824Z,3.1
2017-02-05T03:34:35.457Z,3.1
2017-02-05T03:34:54.093Z,3.1
2017-02-05T03:35:12.730Z,3.1
2017-02-05T03:35:31.377Z,3.1
2017-02-05T03:35:50.006Z,3.2
2017-02-05T03:36:08.657Z,3.2
2017-02-05T03:36:27.318Z,3.2
2017-02-05T03:36:45.957Z,3.2
2017-02-05T03:37:04.593Z,3.2
2017-02-05T03:37:23.224Z,3.2
2017-02-05T03:37:41.859Z,3.2
2017-02-05T03:38:00.499Z,3.2
2017-02-05T03:38:19.136Z,3.2
2017-02-05T03:38:37.768Z,3.2
2017-02-05T03:38:56.401Z,3.2
2017-02-05T03:39:15.035Z,3.3
2017-02-05T03:39:33.671Z,3.2
2017-02-05T03:39:52.333Z,3.2
2017-02-05T03:40:10.968Z,3.2
2017-02-05T03:40:29.600Z,3.2
2017-02-05T03:40:48.243Z,3.2
2017-02-05T03:41:06.874Z,3.2
2017-02-05T03:41:25.506Z,3.2
2017-02-05T03:41:44.140Z,3.2
2017-02-05T03:42:02.774Z,3.2
2017-02-05T03:42:21.402Z,3.2
2017-02-05T03:42:40.041Z,3.2
2017-02-05T03:42:58.676Z,3.2
2017-02-05T03:43:17.340Z,3.2
2017-02-05T03:43:35.984Z,3.2
2017-02-05T03:43:54.612Z,3.2
2017-02-05T03:44:13.252Z,3.2
2017-02-05T03:44:31.889Z,3.2
2017-02-05T03:44:50.529Z,3.2
2017-02-05T03:45:09.159Z,3.2
2017-02-05T03:45:27.795Z,3.2
2017-02-05T03:45:46.433Z,3.2
2017-02-05T03:46:05.071Z,3.2
2017-02-05T03:46:23.706Z,3.2
2017-02-05T03:46:42.365Z,3.2
2017-02-05T03:47:01.002Z,3.2
2017-02-05T03:47:19.639Z,3.2
2017-02-05T03:47:38.269Z,3.2
2017-02-05T03:47:56.899Z,3.2
2017-02-05T03:48:15.552Z,3.2
2017-02-05T03:48:34.186Z,3.2
2017-02-05T03:48:52.821Z,3.2
2017-02-05T03:49:11.458Z,3.2
2017-02-05T03:49:30.096Z,3.2
2017-02-05T03:49:48.726Z,3.2
2017-02-05T03:50:07.391Z,3.2
2017-02-05T03:50:26.029Z,3.2
2017-02-05T03:50:44.667Z,3.2
2017-02-05T03:51:03.296Z,3.1
2017-02-05T03:51:21.940Z,3.1
2017-02-05T03:51:40.575Z,3.1
2017-02-05T03:51:59.205Z,3.1
2017-02-05T03:52:17.841Z,3.1
2017-02-05T03:52:36.476Z,3.1
2017-02-05T03:52:55.104Z,3.1
2017-02-05T03:53:13.732Z,3.1
2017-02-05T03:53:32.394Z,3.1
2017-02-05T03:53:51.034Z,3.1
2017-02-05T03:54:09.669Z,3.1
2017-02-05T03:54:28.304Z,3.1
2017-02-05T03:54:46.933Z,3.1
2017-02-05T03:55:05.570Z,3.1
2017-02-05T03:55:24.206Z,3.1
2017-02-05T03:55:42.848Z,3.1
2017-02-05T03:56:01.483Z,3.1
2017-02-05T03:56:20.117Z,3.1
2017-02-05T03:56:38.763Z,3.1
2017-02-05T03:56:57.424Z,3.1
2017-02-05T03:57:16.060Z,3.1
2017-02-05T03:57:34.695Z,3.1
2017-02-05T03:57:53.337Z,3.1
2017-02-05T03:58:11.978Z,3.1
2017-02-05T03:58:30.612Z,3.1
2017-02-05T03:58:49.247Z,3.1
2017-02-05T03:59:07.888Z,3.1
2017-02-05T03:59:26.525Z,3.2
2017-02-05T03:59:45.156Z,3.2
2017-02-05T04:00:03.790Z,3.2
2017-02-05T04:00:22.446Z,3.2
2017-02-05T04:00:41.079Z,3.2
2017-02-05T04:00:59.719Z,3.2
2017-02-05T04:01:18.353Z,3.2
2017-02-05T04:01:36.985Z,3.2
2017-02-05T04:01:55.654Z,3.2
2017-02-05T04:02:14.286Z,3.1
2017-02-05T04:02:32.920Z,3.1
2017-02-05T04:02:51.562Z,3.1
2017-02-05T04:03:10.196Z,3.1
2017-02-05T04:03:28.824Z,3.1
2017-02-05T04:03:47.462Z,3.1
2017-02-05T04:04:06.097Z,3.1
2017-02-05T04:04:24.730Z,3.1
2017-02-05T04:04:43.373Z,3.1
2017-02-05T04:05:02.012Z,3.1
2017-02-05T04:05:20.677Z,3.1
2017-02-05T04:05:39.312Z,3.1
2017-02-05T04:05:57.949Z,3.1
2017-02-05T04:06:16.583Z,3.1
2017-02-05T04:06:35.236Z,3
2017-02-05T04:06:53.872Z,3
2017-02-05T04:07:12.521Z,3
2017-02-05T04:07:31.158Z,3
2017-02-05T04:07:49.792Z,3
2017-02-05T04:08:08.428Z,3
2017-02-05T04:08:27.070Z,3
2017-02-05T04:08:45.732Z,3
2017-02-05T04:09:04.364Z,3
2017-02-05T04:09:23.004Z,3
2017-02-05T04:09:41.632Z,3
2017-02-05T04:10:00.272Z,3
2017-02-05T04:10:18.908Z,3.1
2017-02-05T04:10:37.547Z,3.1
2017-02-05T04:10:56.178Z,3.1
2017-02-05T04:11:14.806Z,3.1
2017-02-05T04:11:33.445Z,3.1
2017-02-05T04:11:52.097Z,3.1
2017-02-05T04:12:10.731Z,3.1
2017-02-05T04:12:29.373Z,3.1
2017-02-05T04:12:48.008Z,3.1
2017-02-05T04:13:06.654Z,3.1
2017-02-05T04:13:25.292Z,3.1
2017-02-05T04:13:43.931Z,3
2017-02-05T04:14:02.560Z,3
2017-02-05T04:14:21.192Z,3
2017-02-05T04:14:39.835Z,3
2017-02-05T04:14:58.471Z,3
2017-02-05T04:15:17.130Z,3.1
2017-02-05T04:15:35.760Z,3.1
2017-02-05T04:15:54.389Z,3.1
2017-02-05T04:16:13.027Z,3.1
2017-02-05T04:16:31.662Z,3.1
2017-02-05T04:16:50.294Z,3.1
2017-02-05T04:17:08.925Z,3.1
2017-02-05T04:17:27.553Z,3.1
2017-02-05T04:17:46.211Z,3.1